sensor_id;sensor_type;location;lat;lon;timestamp;temperature;humidity
71291;DHT22;59073;51.994;4.448;2023-04-29T00:00:03;10.02;83.56
71291;DHT22;59073;51.994;4.448;2023-04-29T00:02:33;10.12;83.61
71291;DHT22;59073;51.994;4.448;2023-04-29T00:04:58;10.04;83.01
71291;DHT22;59073;51.994;4.448;2023-04-29T00:07:24;9.98;82.88
71291;DHT22;59073;51.994;4.448;2023-04-29T00:09:49;9.97;83.22
71291;DHT22;59073;51.994;4.448;2023-04-29T00:12:15;9.88;82.78
71291;DHT22;59073;51.994;4.448;2023-04-29T00:14:40;9.84;83.19
71291;DHT22;59073;51.994;4.448;2023-04-29T00:17:07;9.76;82.70
71291;DHT22;59073;51.994;4.448;2023-04-29T00:19:33;9.79;82.74
71291;DHT22;59073;51.994;4.448;2023-04-29T00:21:59;9.79;82.35
71291;DHT22;59073;51.994;4.448;2023-04-29T00:24:25;9.81;82.83
71291;DHT22;59073;51.994;4.448;2023-04-29T00:26:51;9.80;82.84
71291;DHT22;59073;51.994;4.448;2023-04-29T00:29:16;9.83;82.96
71291;DHT22;59073;51.994;4.448;2023-04-29T00:31:42;9.81;83.20
71291;DHT22;59073;51.994;4.448;2023-04-29T00:34:08;9.87;82.99
71291;DHT22;59073;51.994;4.448;2023-04-29T00:36:33;9.86;82.89
71291;DHT22;59073;51.994;4.448;2023-04-29T00:38:59;9.91;82.89
71291;DHT22;59073;51.994;4.448;2023-04-29T00:41:24;9.76;83.00
71291;DHT22;59073;51.994;4.448;2023-04-29T00:43:50;9.61;83.22
71291;DHT22;59073;51.994;4.448;2023-04-29T00:46:17;9.50;83.56
71291;DHT22;59073;51.994;4.448;2023-04-29T00:48:42;9.53;83.84
71291;DHT22;59073;51.994;4.448;2023-04-29T00:51:08;9.50;83.98
71291;DHT22;59073;51.994;4.448;2023-04-29T00:53:34;9.56;84.17
71291;DHT22;59073;51.994;4.448;2023-04-29T00:56:01;9.54;83.56
71291;DHT22;59073;51.994;4.448;2023-04-29T00:58:28;9.51;83.77
71291;DHT22;59073;51.994;4.448;2023-04-29T01:00:59;9.54;83.73
71291;DHT22;59073;51.994;4.448;2023-04-29T01:03:27;9.64;83.84
71291;DHT22;59073;51.994;4.448;2023-04-29T01:06:05;9.59;83.56
71291;DHT22;59073;51.994;4.448;2023-04-29T01:08:43;9.59;83.47
71291;DHT22;59073;51.994;4.448;2023-04-29T01:11:18;9.54;83.61
71291;DHT22;59073;51.994;4.448;2023-04-29T01:13:57;9.57;83.87
71291;DHT22;59073;51.994;4.448;2023-04-29T01:16:29;9.54;83.88
71291;DHT22;59073;51.994;4.448;2023-04-29T01:19:02;9.53;83.86
71291;DHT22;59073;51.994;4.448;2023-04-29T01:21:31;9.57;83.80
71291;DHT22;59073;51.994;4.448;2023-04-29T01:23:56;9.56;83.08
71291;DHT22;59073;51.994;4.448;2023-04-29T01:26:23;9.69;83.61
71291;DHT22;59073;51.994;4.448;2023-04-29T01:28:53;9.63;83.09
71291;DHT22;59073;51.994;4.448;2023-04-29T01:31:48;9.64;83.17
71291;DHT22;59073;51.994;4.448;2023-04-29T01:34:55;9.76;82.78
71291;DHT22;59073;51.994;4.448;2023-04-29T01:40:48;9.66;82.71
71291;DHT22;59073;51.994;4.448;2023-04-29T01:43:22;9.74;83.20
71291;DHT22;59073;51.994;4.448;2023-04-29T01:45:51;9.79;82.74
71291;DHT22;59073;51.994;4.448;2023-04-29T01:48:18;9.83;82.91
71291;DHT22;59073;51.994;4.448;2023-04-29T01:50:44;9.91;82.91
71291;DHT22;59073;51.994;4.448;2023-04-29T01:53:09;9.94;82.56
71291;DHT22;59073;51.994;4.448;2023-04-29T01:55:35;9.90;82.58
71291;DHT22;59073;51.994;4.448;2023-04-29T01:58:00;10.00;82.69
71291;DHT22;59073;51.994;4.448;2023-04-29T02:00:25;10.10;82.01
71291;DHT22;59073;51.994;4.448;2023-04-29T02:02:51;10.04;82.14
71291;DHT22;59073;51.994;4.448;2023-04-29T02:05:16;10.07;82.57
71291;DHT22;59073;51.994;4.448;2023-04-29T02:07:42;10.02;82.34
71291;DHT22;59073;51.994;4.448;2023-04-29T02:10:09;10.08;82.47
71291;DHT22;59073;51.994;4.448;2023-04-29T02:12:34;9.98;82.56
71291;DHT22;59073;51.994;4.448;2023-04-29T02:15:00;10.08;82.75
71291;DHT22;59073;51.994;4.448;2023-04-29T02:17:26;10.02;82.88
71291;DHT22;59073;51.994;4.448;2023-04-29T02:19:51;9.93;82.63
71291;DHT22;59073;51.994;4.448;2023-04-29T02:22:19;10.01;83.07
71291;DHT22;59073;51.994;4.448;2023-04-29T02:24:45;10.01;82.86
71291;DHT22;59073;51.994;4.448;2023-04-29T02:27:10;10.11;82.28
71291;DHT22;59073;51.994;4.448;2023-04-29T02:29:35;10.11;82.29
71291;DHT22;59073;51.994;4.448;2023-04-29T02:32:01;10.10;82.36
71291;DHT22;59073;51.994;4.448;2023-04-29T02:34:26;10.07;81.69
71291;DHT22;59073;51.994;4.448;2023-04-29T02:36:52;10.14;81.44
71291;DHT22;59073;51.994;4.448;2023-04-29T02:39:17;10.20;81.18
71291;DHT22;59073;51.994;4.448;2023-04-29T02:41:45;10.10;81.26
71291;DHT22;59073;51.994;4.448;2023-04-29T02:44:10;10.15;80.94
71291;DHT22;59073;51.994;4.448;2023-04-29T02:46:36;10.28;81.36
71291;DHT22;59073;51.994;4.448;2023-04-29T02:49:03;10.21;81.05
71291;DHT22;59073;51.994;4.448;2023-04-29T02:51:29;10.22;81.43
71291;DHT22;59073;51.994;4.448;2023-04-29T02:53:55;10.25;80.86
71291;DHT22;59073;51.994;4.448;2023-04-29T02:56:20;10.27;80.74
71291;DHT22;59073;51.994;4.448;2023-04-29T02:58:45;10.28;80.13
71291;DHT22;59073;51.994;4.448;2023-04-29T03:01:11;10.39;80.24
71291;DHT22;59073;51.994;4.448;2023-04-29T03:03:36;10.39;79.73
71291;DHT22;59073;51.994;4.448;2023-04-29T03:06:02;10.39;80.22
71291;DHT22;59073;51.994;4.448;2023-04-29T03:08:28;10.28;79.71
71291;DHT22;59073;51.994;4.448;2023-04-29T03:10:53;10.28;79.98
71291;DHT22;59073;51.994;4.448;2023-04-29T03:13:18;10.32;80.06
71291;DHT22;59073;51.994;4.448;2023-04-29T03:15:45;10.42;79.75
71291;DHT22;59073;51.994;4.448;2023-04-29T03:18:11;10.46;79.64
71291;DHT22;59073;51.994;4.448;2023-04-29T03:20:37;10.50;79.61
71291;DHT22;59073;51.994;4.448;2023-04-29T03:23:02;10.49;79.57
71291;DHT22;59073;51.994;4.448;2023-04-29T03:25:28;10.41;79.42
71291;DHT22;59073;51.994;4.448;2023-04-29T03:27:54;10.46;79.53
71291;DHT22;59073;51.994;4.448;2023-04-29T03:30:19;10.34;79.51
71291;DHT22;59073;51.994;4.448;2023-04-29T03:32:45;10.38;79.85
71291;DHT22;59073;51.994;4.448;2023-04-29T03:35:10;10.35;79.44
71291;DHT22;59073;51.994;4.448;2023-04-29T03:37:37;10.35;80.03
71291;DHT22;59073;51.994;4.448;2023-04-29T03:40:03;10.31;79.57
71291;DHT22;59073;51.994;4.448;2023-04-29T03:42:29;10.44;79.75
71291;DHT22;59073;51.994;4.448;2023-04-29T03:44:54;10.45;79.74
71291;DHT22;59073;51.994;4.448;2023-04-29T03:47:20;10.46;79.58
71291;DHT22;59073;51.994;4.448;2023-04-29T03:49:45;10.50;79.91
71291;DHT22;59073;51.994;4.448;2023-04-29T03:52:11;10.52;79.51
71291;DHT22;59073;51.994;4.448;2023-04-29T03:54:36;10.60;79.18
71291;DHT22;59073;51.994;4.448;2023-04-29T03:57:02;10.68;79.07
71291;DHT22;59073;51.994;4.448;2023-04-29T03:59:29;10.66;78.94
71291;DHT22;59073;51.994;4.448;2023-04-29T04:01:54;10.69;79.10
71291;DHT22;59073;51.994;4.448;2023-04-29T04:04:20;10.70;78.61
71291;DHT22;59073;51.994;4.448;2023-04-29T04:06:46;10.63;79.02
71291;DHT22;59073;51.994;4.448;2023-04-29T04:09:18;10.70;78.73
71291;DHT22;59073;51.994;4.448;2023-04-29T04:11:44;10.80;78.78
71291;DHT22;59073;51.994;4.448;2023-04-29T04:14:10;10.84;78.81
71291;DHT22;59073;51.994;4.448;2023-04-29T04:16:36;10.83;78.66
71291;DHT22;59073;51.994;4.448;2023-04-29T04:19:01;10.97;78.58
71291;DHT22;59073;51.994;4.448;2023-04-29T04:21:27;10.93;78.72
71291;DHT22;59073;51.994;4.448;2023-04-29T04:23:52;10.90;78.99
71291;DHT22;59073;51.994;4.448;2023-04-29T04:26:18;10.96;79.08
71291;DHT22;59073;51.994;4.448;2023-04-29T04:28:45;10.96;78.40
71291;DHT22;59073;51.994;4.448;2023-04-29T04:31:10;10.92;79.03
71291;DHT22;59073;51.994;4.448;2023-04-29T04:33:37;10.83;79.08
71291;DHT22;59073;51.994;4.448;2023-04-29T04:36:03;10.75;79.93
71291;DHT22;59073;51.994;4.448;2023-04-29T04:38:28;10.76;79.70
71291;DHT22;59073;51.994;4.448;2023-04-29T04:40:54;10.70;79.91
71291;DHT22;59073;51.994;4.448;2023-04-29T04:43:19;10.79;80.36
71291;DHT22;59073;51.994;4.448;2023-04-29T04:45:45;10.76;80.01
71291;DHT22;59073;51.994;4.448;2023-04-29T04:48:10;10.75;80.13
71291;DHT22;59073;51.994;4.448;2023-04-29T04:50:36;10.86;80.42
71291;DHT22;59073;51.994;4.448;2023-04-29T04:53:01;10.82;80.37
71291;DHT22;59073;51.994;4.448;2023-04-29T04:55:27;10.72;80.77
71291;DHT22;59073;51.994;4.448;2023-04-29T04:57:53;10.77;80.83
71291;DHT22;59073;51.994;4.448;2023-04-29T05:00:18;10.70;81.24
71291;DHT22;59073;51.994;4.448;2023-04-29T05:02:44;10.70;81.09
71291;DHT22;59073;51.994;4.448;2023-04-29T05:05:09;10.66;81.50
71291;DHT22;59073;51.994;4.448;2023-04-29T05:07:35;10.75;81.81
71291;DHT22;59073;51.994;4.448;2023-04-29T05:10:01;10.66;81.52
71291;DHT22;59073;51.994;4.448;2023-04-29T05:12:27;10.69;82.12
71291;DHT22;59073;51.994;4.448;2023-04-29T05:14:55;10.68;82.37
71291;DHT22;59073;51.994;4.448;2023-04-29T05:17:20;10.80;81.88
71291;DHT22;59073;51.994;4.448;2023-04-29T05:19:46;10.72;82.13
71291;DHT22;59073;51.994;4.448;2023-04-29T05:22:11;10.79;82.12
71291;DHT22;59073;51.994;4.448;2023-04-29T05:24:37;10.75;81.97
71291;DHT22;59073;51.994;4.448;2023-04-29T05:27:02;10.69;82.26
71291;DHT22;59073;51.994;4.448;2023-04-29T05:29:29;10.66;82.09
71291;DHT22;59073;51.994;4.448;2023-04-29T05:31:55;10.82;82.32
71291;DHT22;59073;51.994;4.448;2023-04-29T05:34:20;10.88;81.83
71291;DHT22;59073;51.994;4.448;2023-04-29T05:36:45;10.88;81.83
71291;DHT22;59073;51.994;4.448;2023-04-29T05:39:11;11.04;81.48
71291;DHT22;59073;51.994;4.448;2023-04-29T05:41:36;10.96;81.30
71291;DHT22;59073;51.994;4.448;2023-04-29T05:44:02;10.90;81.24
71291;DHT22;59073;51.994;4.448;2023-04-29T05:46:27;10.83;81.48
71291;DHT22;59073;51.994;4.448;2023-04-29T05:48:53;10.77;81.41
71291;DHT22;59073;51.994;4.448;2023-04-29T05:51:18;10.80;80.94
71291;DHT22;59073;51.994;4.448;2023-04-29T05:53:44;10.70;81.15
71291;DHT22;59073;51.994;4.448;2023-04-29T05:56:09;10.84;81.21
71291;DHT22;59073;51.994;4.448;2023-04-29T05:58:35;10.95;81.21
71291;DHT22;59073;51.994;4.448;2023-04-29T06:01:01;10.97;80.75
71291;DHT22;59073;51.994;4.448;2023-04-29T06:03:27;11.10;80.42
71291;DHT22;59073;51.994;4.448;2023-04-29T06:05:53;11.06;79.91
71291;DHT22;59073;51.994;4.448;2023-04-29T06:08:19;11.23;79.93
71291;DHT22;59073;51.994;4.448;2023-04-29T06:10:44;11.10;79.23
71291;DHT22;59073;51.994;4.448;2023-04-29T06:13:10;11.23;78.94
71291;DHT22;59073;51.994;4.448;2023-04-29T06:15:36;11.27;78.09
71291;DHT22;59073;51.994;4.448;2023-04-29T06:18:01;11.41;78.13
71291;DHT22;59073;51.994;4.448;2023-04-29T06:20:27;11.35;77.62
71291;DHT22;59073;51.994;4.448;2023-04-29T06:22:52;11.34;77.05
71291;DHT22;59073;51.994;4.448;2023-04-29T06:25:18;11.27;76.51
71291;DHT22;59073;51.994;4.448;2023-04-29T06:27:43;11.24;76.68
71291;DHT22;59073;51.994;4.448;2023-04-29T06:30:09;11.32;75.74
71291;DHT22;59073;51.994;4.448;2023-04-29T06:32:34;11.64;75.64
71291;DHT22;59073;51.994;4.448;2023-04-29T06:35:00;11.75;74.15
71291;DHT22;59073;51.994;4.448;2023-04-29T06:37:25;12.18;72.78
71291;DHT22;59073;51.994;4.448;2023-04-29T06:39:51;12.40;71.56
71291;DHT22;59073;51.994;4.448;2023-04-29T06:42:17;12.47;72.09
71291;DHT22;59073;51.994;4.448;2023-04-29T06:44:42;12.13;70.75
71291;DHT22;59073;51.994;4.448;2023-04-29T06:47:08;12.37;71.80
71291;DHT22;59073;51.994;4.448;2023-04-29T06:49:33;12.60;69.92
71291;DHT22;59073;51.994;4.448;2023-04-29T06:51:59;12.83;69.16
71291;DHT22;59073;51.994;4.448;2023-04-29T06:54:26;13.08;69.39
71291;DHT22;59073;51.994;4.448;2023-04-29T06:56:53;13.05;70.57
71291;DHT22;59073;51.994;4.448;2023-04-29T06:59:18;12.90;70.52
71291;DHT22;59073;51.994;4.448;2023-04-29T07:01:44;12.81;70.67
71291;DHT22;59073;51.994;4.448;2023-04-29T07:04:09;12.87;70.62
71291;DHT22;59073;51.994;4.448;2023-04-29T07:06:35;12.78;70.69
71291;DHT22;59073;51.994;4.448;2023-04-29T07:09:01;12.61;71.47
71291;DHT22;59073;51.994;4.448;2023-04-29T07:11:26;12.68;71.73
71291;DHT22;59073;51.994;4.448;2023-04-29T07:13:52;12.32;70.42
71291;DHT22;59073;51.994;4.448;2023-04-29T07:16:18;12.51;69.91
71291;DHT22;59073;51.994;4.448;2023-04-29T07:18:45;12.57;71.65
71291;DHT22;59073;51.994;4.448;2023-04-29T07:21:11;12.68;70.41
71291;DHT22;59073;51.994;4.448;2023-04-29T07:23:37;12.88;70.43
71291;DHT22;59073;51.994;4.448;2023-04-29T07:26:13;13.25;69.84
71291;DHT22;59073;51.994;4.448;2023-04-29T07:28:41;13.05;69.07
71291;DHT22;59073;51.994;4.448;2023-04-29T07:31:07;12.97;67.97
71291;DHT22;59073;51.994;4.448;2023-04-29T07:33:34;13.21;68.15
71291;DHT22;59073;51.994;4.448;2023-04-29T07:36:00;13.11;68.25
71291;DHT22;59073;51.994;4.448;2023-04-29T07:38:26;13.00;68.60
71291;DHT22;59073;51.994;4.448;2023-04-29T07:40:51;12.95;68.24
71291;DHT22;59073;51.994;4.448;2023-04-29T07:43:16;13.25;68.25
71291;DHT22;59073;51.994;4.448;2023-04-29T07:45:42;13.50;68.25
71291;DHT22;59073;51.994;4.448;2023-04-29T07:48:07;12.95;68.34
71291;DHT22;59073;51.994;4.448;2023-04-29T07:50:34;12.83;69.28
71291;DHT22;59073;51.994;4.448;2023-04-29T07:53:01;12.77;69.51
71291;DHT22;59073;51.994;4.448;2023-04-29T07:55:27;12.90;69.59
71291;DHT22;59073;51.994;4.448;2023-04-29T07:57:54;12.74;68.80
71291;DHT22;59073;51.994;4.448;2023-04-29T08:00:20;12.95;69.41
71291;DHT22;59073;51.994;4.448;2023-04-29T08:02:50;13.02;69.13
71291;DHT22;59073;51.994;4.448;2023-04-29T08:05:15;12.65;69.33
71291;DHT22;59073;51.994;4.448;2023-04-29T08:07:40;13.00;68.20
71291;DHT22;59073;51.994;4.448;2023-04-29T08:10:06;12.78;68.78
71291;DHT22;59073;51.994;4.448;2023-04-29T08:12:32;12.71;70.22
71291;DHT22;59073;51.994;4.448;2023-04-29T08:14:58;12.74;69.54
71291;DHT22;59073;51.994;4.448;2023-04-29T08:17:23;12.60;71.12
71291;DHT22;59073;51.994;4.448;2023-04-29T08:19:49;12.78;72.22
71291;DHT22;59073;51.994;4.448;2023-04-29T08:22:14;12.95;71.57
71291;DHT22;59073;51.994;4.448;2023-04-29T08:24:40;13.35;70.97
71291;DHT22;59073;51.994;4.448;2023-04-29T08:27:07;13.32;70.42
71291;DHT22;59073;51.994;4.448;2023-04-29T08:29:32;13.05;71.46
71291;DHT22;59073;51.994;4.448;2023-04-29T08:31:58;13.43;69.89
71291;DHT22;59073;51.994;4.448;2023-04-29T08:34:24;14.17;69.54
71291;DHT22;59073;51.994;4.448;2023-04-29T08:36:49;13.97;67.23
71291;DHT22;59073;51.994;4.448;2023-04-29T08:39:15;13.70;69.05
71291;DHT22;59073;51.994;4.448;2023-04-29T08:41:40;14.14;67.28
71291;DHT22;59073;51.994;4.448;2023-04-29T08:44:08;14.17;64.57
71291;DHT22;59073;51.994;4.448;2023-04-29T08:46:34;14.14;65.86
71291;DHT22;59073;51.994;4.448;2023-04-29T08:49:02;13.43;67.77
71291;DHT22;59073;51.994;4.448;2023-04-29T08:51:28;13.00;69.07
71291;DHT22;59073;51.994;4.448;2023-04-29T08:53:55;13.72;68.35
71291;DHT22;59073;51.994;4.448;2023-04-29T08:56:20;14.76;65.23
71291;DHT22;59073;51.994;4.448;2023-04-29T08:58:49;15.00;63.00
71291;DHT22;59073;51.994;4.448;2023-04-29T09:01:20;14.62;63.26
71291;DHT22;59073;51.994;4.448;2023-04-29T09:04:03;14.11;65.66
71291;DHT22;59073;51.994;4.448;2023-04-29T09:06:33;14.44;64.07
71291;DHT22;59073;51.994;4.448;2023-04-29T09:09:00;14.67;63.67
71291;DHT22;59073;51.994;4.448;2023-04-29T09:11:29;14.85;63.58
71291;DHT22;59073;51.994;4.448;2023-04-29T09:13:59;14.88;63.99
71291;DHT22;59073;51.994;4.448;2023-04-29T09:16:28;15.39;61.90
71291;DHT22;59073;51.994;4.448;2023-04-29T09:18:54;15.23;61.60
71291;DHT22;59073;51.994;4.448;2023-04-29T09:21:24;15.14;62.79
71291;DHT22;59073;51.994;4.448;2023-04-29T09:23:58;15.31;60.84
71291;DHT22;59073;51.994;4.448;2023-04-29T09:26:24;14.57;63.55
71291;DHT22;59073;51.994;4.448;2023-04-29T09:29:09;14.79;64.33
71291;DHT22;59073;51.994;4.448;2023-04-29T09:31:37;14.59;65.30
71291;DHT22;59073;51.994;4.448;2023-04-29T09:34:03;14.83;64.72
71291;DHT22;59073;51.994;4.448;2023-04-29T09:36:46;14.72;62.74
71291;DHT22;59073;51.994;4.448;2023-04-29T09:39:16;15.22;63.64
71291;DHT22;59073;51.994;4.448;2023-04-29T09:41:57;14.25;64.41
71291;DHT22;59073;51.994;4.448;2023-04-29T09:44:29;13.73;65.04
71291;DHT22;59073;51.994;4.448;2023-04-29T09:47:05;14.00;64.89
71291;DHT22;59073;51.994;4.448;2023-04-29T09:49:36;14.90;63.82
71291;DHT22;59073;51.994;4.448;2023-04-29T09:52:09;14.46;65.19
71291;DHT22;59073;51.994;4.448;2023-04-29T09:54:37;14.38;63.44
71291;DHT22;59073;51.994;4.448;2023-04-29T09:57:04;15.00;63.46
71291;DHT22;59073;51.994;4.448;2023-04-29T09:59:30;15.41;61.52
71291;DHT22;59073;51.994;4.448;2023-04-29T10:01:57;14.89;60.83
71291;DHT22;59073;51.994;4.448;2023-04-29T10:04:25;14.89;61.04
71291;DHT22;59073;51.994;4.448;2023-04-29T10:06:55;14.69;64.00
71291;DHT22;59073;51.994;4.448;2023-04-29T10:09:22;15.44;61.91
71291;DHT22;59073;51.994;4.448;2023-04-29T10:11:50;15.04;61.82
71291;DHT22;59073;51.994;4.448;2023-04-29T10:14:25;15.04;63.91
71291;DHT22;59073;51.994;4.448;2023-04-29T10:17:15;15.75;60.78
71291;DHT22;59073;51.994;4.448;2023-04-29T10:19:57;15.34;63.08
71291;DHT22;59073;51.994;4.448;2023-04-29T10:22:39;15.23;61.66
71291;DHT22;59073;51.994;4.448;2023-04-29T10:25:09;15.34;59.73
71291;DHT22;59073;51.994;4.448;2023-04-29T10:27:35;15.24;58.96
71291;DHT22;59073;51.994;4.448;2023-04-29T10:30:01;15.71;60.55
71291;DHT22;59073;51.994;4.448;2023-04-29T10:32:29;15.71;57.91
71291;DHT22;59073;51.994;4.448;2023-04-29T10:34:56;16.19;60.33
71291;DHT22;59073;51.994;4.448;2023-04-29T10:37:24;16.64;58.06
71291;DHT22;59073;51.994;4.448;2023-04-29T10:40:21;16.84;58.54
71291;DHT22;59073;51.994;4.448;2023-04-29T10:42:49;16.57;59.11
71291;DHT22;59073;51.994;4.448;2023-04-29T10:45:29;17.62;61.14
71291;DHT22;59073;51.994;4.448;2023-04-29T10:50:32;18.21;58.67
71291;DHT22;59073;51.994;4.448;2023-04-29T10:53:00;16.60;56.60
71291;DHT22;59073;51.994;4.448;2023-04-29T10:55:27;15.97;60.04
71291;DHT22;59073;51.994;4.448;2023-04-29T10:57:56;16.04;59.88
71291;DHT22;59073;51.994;4.448;2023-04-29T11:00:26;16.48;59.19
71291;DHT22;59073;51.994;4.448;2023-04-29T11:02:53;17.21;56.08
71291;DHT22;59073;51.994;4.448;2023-04-29T11:05:29;17.38;54.08
71291;DHT22;59073;51.994;4.448;2023-04-29T11:08:20;17.73;54.63
71291;DHT22;59073;51.994;4.448;2023-04-29T11:10:52;16.26;58.36
71291;DHT22;59073;51.994;4.448;2023-04-29T11:13:28;15.46;60.28
71291;DHT22;59073;51.994;4.448;2023-04-29T11:16:10;15.61;59.08
71291;DHT22;59073;51.994;4.448;2023-04-29T11:19:08;15.95;60.82
71291;DHT22;59073;51.994;4.448;2023-04-29T11:21:36;16.50;59.47
71291;DHT22;59073;51.994;4.448;2023-04-29T11:24:03;16.73;57.95
71291;DHT22;59073;51.994;4.448;2023-04-29T11:26:34;16.74;58.82
71291;DHT22;59073;51.994;4.448;2023-04-29T11:29:00;17.08;57.12
71291;DHT22;59073;51.994;4.448;2023-04-29T11:31:29;16.59;57.29
71291;DHT22;59073;51.994;4.448;2023-04-29T11:33:55;16.04;58.18
71291;DHT22;59073;51.994;4.448;2023-04-29T11:36:20;16.38;59.08
71291;DHT22;59073;51.994;4.448;2023-04-29T11:38:46;16.80;59.78
71291;DHT22;59073;51.994;4.448;2023-04-29T11:41:11;17.71;58.18
71291;DHT22;59073;51.994;4.448;2023-04-29T11:43:37;18.09;52.87
71291;DHT22;59073;51.994;4.448;2023-04-29T11:46:13;18.94;52.78
71291;DHT22;59073;51.994;4.448;2023-04-29T11:48:45;18.50;48.44
71291;DHT22;59073;51.994;4.448;2023-04-29T11:51:17;17.73;52.53
71291;DHT22;59073;51.994;4.448;2023-04-29T11:53:44;17.07;61.05
71291;DHT22;59073;51.994;4.448;2023-04-29T11:56:10;16.56;60.39
71291;DHT22;59073;51.994;4.448;2023-04-29T11:58:36;15.95;62.79
71291;DHT22;59073;51.994;4.448;2023-04-29T12:01:03;15.50;60.62
71291;DHT22;59073;51.994;4.448;2023-04-29T12:03:31;15.54;62.42
71291;DHT22;59073;51.994;4.448;2023-04-29T12:05:57;16.12;64.29
71291;DHT22;59073;51.994;4.448;2023-04-29T12:08:24;16.76;60.51
71291;DHT22;59073;51.994;4.448;2023-04-29T12:10:51;17.11;59.36
71291;DHT22;59073;51.994;4.448;2023-04-29T12:13:18;16.73;57.76
71291;DHT22;59073;51.994;4.448;2023-04-29T12:15:44;16.48;59.91
71291;DHT22;59073;51.994;4.448;2023-04-29T12:18:12;16.66;59.43
71291;DHT22;59073;51.994;4.448;2023-04-29T12:20:38;16.74;61.67
71291;DHT22;59073;51.994;4.448;2023-04-29T12:23:18;16.49;59.65
71291;DHT22;59073;51.994;4.448;2023-04-29T12:25:52;15.58;60.98
71291;DHT22;59073;51.994;4.448;2023-04-29T12:28:18;15.74;64.49
71291;DHT22;59073;51.994;4.448;2023-04-29T12:30:48;15.72;61.76
71291;DHT22;59073;51.994;4.448;2023-04-29T12:33:17;15.60;65.10
71291;DHT22;59073;51.994;4.448;2023-04-29T12:35:44;15.57;63.32
71291;DHT22;59073;51.994;4.448;2023-04-29T12:38:09;15.44;66.91
71291;DHT22;59073;51.994;4.448;2023-04-29T12:40:35;15.49;64.17
71291;DHT22;59073;51.994;4.448;2023-04-29T12:43:07;15.50;63.99
71291;DHT22;59073;51.994;4.448;2023-04-29T12:45:34;15.61;63.22
71291;DHT22;59073;51.994;4.448;2023-04-29T12:48:01;15.78;61.77
71291;DHT22;59073;51.994;4.448;2023-04-29T12:50:31;15.87;60.44
71291;DHT22;59073;51.994;4.448;2023-04-29T12:52:57;15.97;62.54
71291;DHT22;59073;51.994;4.448;2023-04-29T12:55:23;15.70;61.29
71291;DHT22;59073;51.994;4.448;2023-04-29T12:57:48;15.41;61.47
71291;DHT22;59073;51.994;4.448;2023-04-29T13:00:14;15.61;62.96
71291;DHT22;59073;51.994;4.448;2023-04-29T13:02:40;15.58;62.09
71291;DHT22;59073;51.994;4.448;2023-04-29T13:05:06;15.39;62.19
71291;DHT22;59073;51.994;4.448;2023-04-29T13:07:32;15.46;62.64
71291;DHT22;59073;51.994;4.448;2023-04-29T13:09:57;15.36;62.05
71291;DHT22;59073;51.994;4.448;2023-04-29T13:12:22;15.40;63.23
71291;DHT22;59073;51.994;4.448;2023-04-29T13:14:48;15.60;63.80
71291;DHT22;59073;51.994;4.448;2023-04-29T13:17:13;15.65;62.74
71291;DHT22;59073;51.994;4.448;2023-04-29T13:19:39;15.85;63.81
71291;DHT22;59073;51.994;4.448;2023-04-29T13:22:05;15.40;63.49
71291;DHT22;59073;51.994;4.448;2023-04-29T13:24:30;15.33;63.81
71291;DHT22;59073;51.994;4.448;2023-04-29T13:26:57;15.54;64.33
71291;DHT22;59073;51.994;4.448;2023-04-29T13:29:22;15.23;63.56
71291;DHT22;59073;51.994;4.448;2023-04-29T13:31:48;15.04;65.35
71291;DHT22;59073;51.994;4.448;2023-04-29T13:34:14;15.10;64.72
71291;DHT22;59073;51.994;4.448;2023-04-29T13:36:39;15.19;64.22
71291;DHT22;59073;51.994;4.448;2023-04-29T13:39:04;15.24;61.27
71291;DHT22;59073;51.994;4.448;2023-04-29T13:41:30;15.00;62.59
71291;DHT22;59073;51.994;4.448;2023-04-29T13:43:56;15.19;63.36
71291;DHT22;59073;51.994;4.448;2023-04-29T13:46:22;15.60;62.18
71291;DHT22;59073;51.994;4.448;2023-04-29T13:48:47;15.47;61.70
71291;DHT22;59073;51.994;4.448;2023-04-29T13:51:13;15.36;60.41
71291;DHT22;59073;51.994;4.448;2023-04-29T13:53:38;15.40;62.44
71291;DHT22;59073;51.994;4.448;2023-04-29T13:56:04;15.40;59.93
71291;DHT22;59073;51.994;4.448;2023-04-29T13:58:29;15.60;60.14
71291;DHT22;59073;51.994;4.448;2023-04-29T14:00:55;15.65;59.13
71291;DHT22;59073;51.994;4.448;2023-04-29T14:03:21;15.62;61.52
71291;DHT22;59073;51.994;4.448;2023-04-29T14:05:46;15.30;60.81
71291;DHT22;59073;51.994;4.448;2023-04-29T14:08:12;15.23;61.02
71291;DHT22;59073;51.994;4.448;2023-04-29T14:10:38;15.44;62.55
71291;DHT22;59073;51.994;4.448;2023-04-29T14:13:03;15.49;63.69
71291;DHT22;59073;51.994;4.448;2023-04-29T14:15:29;15.43;62.19
71291;DHT22;59073;51.994;4.448;2023-04-29T14:17:55;15.16;61.73
71291;DHT22;59073;51.994;4.448;2023-04-29T14:20:20;15.31;59.73
71291;DHT22;59073;51.994;4.448;2023-04-29T14:22:46;15.27;63.36
71291;DHT22;59073;51.994;4.448;2023-04-29T14:25:11;14.85;63.66
71291;DHT22;59073;51.994;4.448;2023-04-29T14:27:37;14.62;62.37
71291;DHT22;59073;51.994;4.448;2023-04-29T14:30:03;14.73;63.00
71291;DHT22;59073;51.994;4.448;2023-04-29T14:32:29;14.72;62.30
71291;DHT22;59073;51.994;4.448;2023-04-29T14:34:55;14.69;61.44
71291;DHT22;59073;51.994;4.448;2023-04-29T14:37:20;14.88;62.21
71291;DHT22;59073;51.994;4.448;2023-04-29T14:39:46;15.00;63.80
71291;DHT22;59073;51.994;4.448;2023-04-29T14:42:11;15.03;59.90
71291;DHT22;59073;51.994;4.448;2023-04-29T14:44:37;15.06;60.18
71291;DHT22;59073;51.994;4.448;2023-04-29T14:47:03;14.95;59.40
71291;DHT22;59073;51.994;4.448;2023-04-29T14:49:29;14.83;62.77
71291;DHT22;59073;51.994;4.448;2023-04-29T14:51:54;14.86;61.92
71291;DHT22;59073;51.994;4.448;2023-04-29T14:54:20;14.96;60.25
71291;DHT22;59073;51.994;4.448;2023-04-29T14:56:45;14.99;61.57
71291;DHT22;59073;51.994;4.448;2023-04-29T14:59:11;14.93;61.44
71291;DHT22;59073;51.994;4.448;2023-04-29T15:01:36;14.90;61.92
71291;DHT22;59073;51.994;4.448;2023-04-29T15:04:04;15.03;61.32
71291;DHT22;59073;51.994;4.448;2023-04-29T15:06:30;14.95;60.85
71291;DHT22;59073;51.994;4.448;2023-04-29T15:08:56;15.02;62.09
71291;DHT22;59073;51.994;4.448;2023-04-29T15:11:22;15.29;62.36
71291;DHT22;59073;51.994;4.448;2023-04-29T15:13:48;15.44;62.05
71291;DHT22;59073;51.994;4.448;2023-04-29T15:16:13;15.53;61.85
71291;DHT22;59073;51.994;4.448;2023-04-29T15:18:39;15.26;60.73
71291;DHT22;59073;51.994;4.448;2023-04-29T15:21:05;15.33;62.13
71291;DHT22;59073;51.994;4.448;2023-04-29T15:23:30;15.34;61.34
71291;DHT22;59073;51.994;4.448;2023-04-29T15:25:56;15.12;61.62
71291;DHT22;59073;51.994;4.448;2023-04-29T15:28:22;14.90;62.06
71291;DHT22;59073;51.994;4.448;2023-04-29T15:30:49;14.76;64.43
71291;DHT22;59073;51.994;4.448;2023-04-29T15:33:14;14.79;62.12
71291;DHT22;59073;51.994;4.448;2023-04-29T15:35:39;14.86;64.85
71291;DHT22;59073;51.994;4.448;2023-04-29T15:38:05;14.79;62.96